Time;durP1;ratioP1;P1;durP2;ratioP2;P2;SDS_P1;SDS_P2;PMS_P1;PMS_P2;Temp;Humidity;BMP_temperature;BMP_pressure;BME280_temperature;BME280_humidity;BME280_pressure;Samples;Min_cycle;Max_cycle;Signal;HPM_P1;HPM_P2
2021/08/26 12:41:00;;;;;;;;;;;;;;;;;;35854;1196;3052649;-66
2021/08/26 12:45:43;;;;;;;;;;;;;;;;;;30625;1192;7626225;-81
2021/08/26 12:48:08;;;;;;;;;;;;;;;;;;89841;1191;3011031;-77
2021/08/26 12:48:53;;;;;;;;;;;;;;;;;;7161;1202;639297;-79
2021/08/26 12:49:03;;;;;;;;;;;;;;;;;;7680;1198;93502;-78
2021/08/26 12:49:14;;;;;;;;;;;;;;;;;;7734;1201;70505;-73
2021/08/26 12:49:26;;;;;;;;;;;;;;;;;;2282;1204;3011614;-77
2021/08/26 12:49:37;;;;;;;;;;;;;;;;;;4588;1201;3010041;-71
2021/08/26 12:49:49;;;;;;;;;;;;;;;;;;7738;1207;91977;-72
2021/08/26 12:50:00;;;;;;;;;;;;;;;;;;7748;1202;70529;-72
2021/08/26 12:50:10;;;;;;;;;;;;;;;;;;7710;1207;90566;-72
2021/08/26 12:50:21;;;;;;;;;;;;;;;;;;7689;1207;116678;-72
2021/08/26 12:50:32;;;;;;;;;;;;;;;;;;7247;1202;335465;-72
2021/08/26 12:50:42;;;;;;;;;;;;;;;;;;5229;1200;2311787;-72
2021/08/26 12:50:52;;;;;;;;;;;;;;;;;;7525;1204;94282;-71
2021/08/26 12:51:02;;;;;;;;;;;;;;;;;;7694;1207;92120;-71
2021/08/26 12:51:13;;;;;;;;;;;;;;;;;;7159;1205;611088;-73
2021/08/26 12:51:24;;;;;;;;;;;;;;;;;;7704;1207;91000;-76
2021/08/26 12:51:34;;;;;;;;;;;;;;;;;;3055;1207;3010871;-81
2021/08/26 12:51:46;;;;;;;;;;;;;;;;;;4603;1202;3010475;-74
2021/08/26 12:52:02;;;;;;;;;;;;;;;;;;2207;1207;3309091;-73
2021/08/26 12:52:14;;;;;;;;;;;;;;;;;;1470;1204;3034353;-73
2021/08/26 12:52:26;;;;;;;;;;;;;;;;;;1952;1205;3073206;-74
2021/08/26 12:52:38;;;;;;;;;;;;;;;;;;1785;1207;3010858;-74
2021/08/26 12:52:50;;;;;;;;;;;;;;;;;;1788;1207;3058478;-73
2021/08/26 12:53:02;;;;;;;;;;;;;;;;;;2075;1204;3034011;-73
2021/08/26 12:53:14;;;;;;;;;;;;;;;;;;2051;1204;3037123;-72
2021/08/26 12:53:26;;;;;;;;;;;;;;;;;;3029;1204;3101656;-77
2021/08/26 12:53:36;;;;;;;;;;;;;;;;;;7718;1201;70107;-73
2021/08/26 12:53:46;;;;;;;;;;;;;;;;;;7702;1205;90896;-74
2021/08/26 12:53:57;;;;;;;;;;;;;;;;;;7687;1204;93969;-74
2021/08/26 12:54:07;;;;;;;;;;;;;;;;;;7737;1207;70085;-74
2021/08/26 12:54:17;;;;;;;;;;;;;;;;;;7728;1207;62524;-71
2021/08/26 12:54:27;;;;;;;;;;;;;;;;;;7693;1204;95014;-70
2021/08/26 12:54:41;;;;;;;;;;;;;;;;;;7734;1204;91687;-71
2021/08/26 12:54:51;;;;;;;;;;;;;;;;;;7714;1201;93370;-74
2021/08/26 12:55:02;;;;;;;;;;;;;;;;;;7690;1204;90860;-74
2021/08/26 12:55:12;;;;;;;;;;;;;;;;;;7694;1204;116206;-75
2021/08/26 12:55:23;;;;;;;;;;;;;;;;;;7754;1204;70036;-75
2021/08/26 12:55:34;;;;;;;;;;;;;;;;;;7728;1204;84817;-75
2021/08/26 12:55:46;;;;;;;;;;;;;;;;;;7687;1205;116226;-75
2021/08/26 12:55:56;;;;;;;;;;;;;;;;;;7725;1201;116034;-75
2021/08/26 12:56:07;;;;;;;;;;;;;;;;;;7719;1205;93829;-75
2021/08/26 12:56:18;;;;;;;;;;;;;;;;;;7713;1207;90914;-74
2021/08/26 12:56:30;;;;;;;;;;;;;;;;;;7693;1209;115638;-75
2021/08/26 12:56:41;;;;;;;;;;;;;;;;;;7751;1205;70385;-74
2021/08/26 12:56:51;;;;;;;;;;;;;;;;;;7720;1205;84970;-78
2021/08/26 12:57:01;;;;;;;;;;;;;;;;;;7660;1207;94918;-79
2021/08/26 12:57:12;;;;;;;;;;;;;;;;;;7725;1201;92392;-78
2021/08/26 12:57:22;;;;;;;;;;;;;;;;;;7734;1202;92903;-80
2021/08/26 12:57:33;;;;;;;;;;;;;;;;;;7689;1210;90554;-78
2021/08/26 12:57:43;;;;;;;;;;;;;;;;;;7687;1207;116836;-79
2021/08/26 12:57:54;;;;;;;;;;;;;;;;;;7722;1208;72126;-73
2021/08/26 12:58:04;;;;;;;;;;;;;;;;;;7727;1208;86515;-72
2021/08/26 12:58:15;;;;;;;;;;;;;;;;;;7694;1204;113690;-74
2021/08/26 12:58:25;;;;;;;;;;;;;;;;;;7724;1203;114840;-76
2021/08/26 12:58:35;;;;;;;;;;;;;;;;;;7704;1207;93288;-74
2021/08/26 12:58:46;;;;;;;;;;;;;;;;;;7693;1207;91671;-78
2021/08/26 12:59:01;;;;;;;;;;;;;;;;;;7661;1205;115879;-83
2021/08/26 12:59:12;;;;;;;;;;;;;;;;;;7745;1205;70097;-77
2021/08/26 12:59:23;;;;;;;;;;;;;;;;;;7729;1205;84114;-76
2021/08/26 12:59:33;;;;;;;;;;;;;;;;;;7702;1206;95879;-78
2021/08/26 12:59:46;;;;;;;;;;;;;;;;;;7761;1201;93079;-77
2021/08/26 13:00:00;;;;;;;;;;;;;;;;;;7746;1203;92598;-77
2021/08/26 13:00:10;;;;;;;;;;;;;;;;;;7730;1204;91203;-76
2021/08/26 13:00:21;;;;;;;;;;;;;;;;;;7699;1205;116115;-75
2021/08/26 13:00:31;;;;;;;;;;;;;;;;;;7744;1205;71760;-77
2021/08/26 13:00:43;;;;;;;;;;;;;;;;;;7755;1204;83583;-76
2021/08/26 13:00:55;;;;;;;;;;;;;;;;;;7703;1204;112848;-75
2021/08/26 13:01:05;;;;;;;;;;;;;;;;;;7729;1204;114525;-74
2021/08/26 13:01:16;;;;;;;;;;;;;;;;;;7736;1204;70600;-77
2021/08/26 13:01:26;;;;;;;;;;;;;;;;;;7712;1204;90935;-78
2021/08/26 13:01:36;;;;;;;;;;;;;;;;;;7674;1204;94570;-77
2021/08/26 13:01:49;;;;;;;;;;;;;;;;;;7752;1200;70518;-76
2021/08/26 13:02:00;;;;;;;;;;;;;;;;;;7750;1203;84466;-76
2021/08/26 13:02:10;;;;;;;;;;;;;;;;;;7678;1209;114631;-76
2021/08/26 13:02:20;;;;;;;;;;;;;;;;;;7705;1204;92870;-74
2021/08/26 13:02:30;;;;;;;;;;;;;;;;;;7717;1204;71347;-73
2021/08/26 13:02:41;;;;;;;;;;;;;;;;;;7715;1204;91017;-74
2021/08/26 13:02:51;;;;;;;;;;;;;;;;;;7706;1204;95102;-74
2021/08/26 13:03:01;;;;;;;;;;;;;;;;;;7753;1201;70468;-74
2021/08/26 13:03:11;;;;;;;;;;;;;;;;;;7738;1204;62759;-74
2021/08/26 13:03:22;;;;;;;;;;;;;;;;;;7702;1207;114259;-76
2021/08/26 13:03:33;;;;;;;;;;;;;;;;;;7735;1204;114767;-76
2021/08/26 13:03:43;;;;;;;;;;;;;;;;;;7744;1201;70741;-77
2021/08/26 13:03:54;;;;;;;;;;;;;;;;;;7730;1207;91127;-77
2021/08/26 13:04:04;;;;;;;;;;;;;;;;;;7696;1204;116186;-76
2021/08/26 13:04:14;;;;;;;;;;;;;;;;;;7772;1205;71972;-76
2021/08/26 13:04:24;;;;;;;;;;;;;;;;;;7773;1202;84748;-76
2021/08/26 13:04:35;;;;;;;;;;;;;;;;;;7704;1205;94085;-76
2021/08/26 13:04:46;;;;;;;;;;;;;;;;;;7743;1203;115696;-74
2021/08/26 13:04:57;;;;;;;;;;;;;;;;;;7756;1201;92548;-76
2021/08/26 13:05:07;;;;;;;;;;;;;;;;;;7723;1204;90848;-76
2021/08/26 13:05:17;;;;;;;;;;;;;;;;;;7712;1203;94465;-75
2021/08/26 13:05:28;;;;;;;;;;;;;;;;;;7772;1198;69869;-75
2021/08/26 13:05:38;;;;;;;;;;;;;;;;;;7743;1207;84384;-73
2021/08/26 13:05:48;;;;;;;;;;;;;;;;;;7697;1204;93446;-73
2021/08/26 13:06:00;;;;;;;;;;;;;;;;;;7744;1204;115217;-75
2021/08/26 13:06:10;;;;;;;;;;;;;;;;;;7734;1205;70797;-74
2021/08/26 13:06:20;;;;;;;;;;;;;;;;;;7733;1204;90463;-75
2021/08/26 13:06:30;;;;;;;;;;;;;;;;;;7697;1204;94493;-74
2021/08/26 13:06:41;;;;;;;;;;;;;;;;;;7748;1201;70731;-74
2021/08/26 13:06:51;;;;;;;;;;;;;;;;;;7738;1203;63702;-74
2021/08/26 13:07:01;;;;;;;;;;;;;;;;;;7701;1204;94311;-74
2021/08/26 13:07:14;;;;;;;;;;;;;;;;;;7745;1203;94454;-74
2021/08/26 13:07:24;;;;;;;;;;;;;;;;;;7756;1198;95095;-75
2021/08/26 13:07:36;;;;;;;;;;;;;;;;;;7731;1206;92094;-73
2021/08/26 13:07:46;;;;;;;;;;;;;;;;;;7701;1203;116704;-74
2021/08/26 13:07:57;;;;;;;;;;;;;;;;;;7778;1197;69987;-74
2021/08/26 13:08:07;;;;;;;;;;;;;;;;;;7739;1200;84905;-73
2021/08/26 13:08:18;;;;;;;;;;;;;;;;;;7710;1202;93949;-73
2021/08/26 13:08:28;;;;;;;;;;;;;;;;;;7748;1202;116262;-74
2021/08/26 13:08:40;;;;;;;;;;;;;;;;;;7759;1202;93534;-73
2021/08/26 13:08:50;;;;;;;;;;;;;;;;;;7728;1203;91019;-73
2021/08/26 13:09:06;;;;;;;;;;;;;;;;;;7706;1204;115986;-73
2021/08/26 13:09:16;;;;;;;;;;;;;;;;;;7762;1202;70678;-74
2021/08/26 13:09:27;;;;;;;;;;;;;;;;;;7750;1204;63224;-71
2021/08/26 13:09:37;;;;;;;;;;;;;;;;;;7704;1204;93931;-71
2021/08/26 13:09:47;;;;;;;;;;;;;;;;;;7751;1203;94379;-72
2021/08/26 13:09:57;;;;;;;;;;;;;;;;;;7760;1198;70841;-71
2021/08/26 13:10:07;;;;;;;;;;;;;;;;;;7732;1206;90545;-71
2021/08/26 13:10:18;;;;;;;;;;;;;;;;;;7712;1202;94715;-72
2021/08/26 13:10:28;;;;;;;;;;;;;;;;;;7784;1198;70587;-71
2021/08/26 13:10:39;;;;;;;;;;;;;;;;;;7770;1206;63907;-72
2021/08/26 13:10:52;;;;;;;;;;;;;;;;;;7690;1206;113455;-73
2021/08/26 13:11:02;;;;;;;;;;;;;;;;;;7738;1198;116416;-73
2021/08/26 13:11:13;;;;;;;;;;;;;;;;;;7746;1204;92100;-76
2021/08/26 13:11:23;;;;;;;;;;;;;;;;;;7714;1204;90936;-77
2021/08/26 13:11:34;;;;;;;;;;;;;;;;;;7692;1203;116646;-75
2021/08/26 13:11:44;;;;;;;;;;;;;;;;;;7754;1201;70558;-74
2021/08/26 13:11:57;;;;;;;;;;;;;;;;;;7751;1204;83372;-74
2021/08/26 13:12:07;;;;;;;;;;;;;;;;;;7684;1207;113944;-70
2021/08/26 13:12:18;;;;;;;;;;;;;;;;;;7733;1201;93652;-70
2021/08/26 13:12:29;;;;;;;;;;;;;;;;;;7746;1207;93220;-73
2021/08/26 13:12:40;;;;;;;;;;;;;;;;;;7715;1204;92436;-72
2021/08/26 13:12:50;;;;;;;;;;;;;;;;;;7680;1204;116800;-72
2021/08/26 13:13:00;;;;;;;;;;;;;;;;;;7766;1204;72272;-73
2021/08/26 13:13:11;;;;;;;;;;;;;;;;;;7753;1204;63343;-72
2021/08/26 13:13:30;;;;;;;;;;;;;;;;;;7716;1204;113231;-73
2021/08/26 13:13:44;;;;;;;;;;;;;;;;;;7758;1198;115914;-76
2021/08/26 13:13:54;;;;;;;;;;;;;;;;;;7755;1203;93385;-75
2021/08/26 13:14:04;;;;;;;;;;;;;;;;;;7739;1203;90373;-74
2021/08/26 13:14:14;;;;;;;;;;;;;;;;;;7707;1204;116873;-74
2021/08/26 13:14:25;;;;;;;;;;;;;;;;;;7782;1198;70332;-77
2021/08/26 13:14:40;;;;;;;;;;;;;;;;;;7756;1204;85118;-78
2021/08/26 13:14:50;;;;;;;;;;;;;;;;;;7709;1205;93518;-78
2021/08/26 13:15:00;;;;;;;;;;;;;;;;;;7750;1198;94819;-74
2021/08/26 13:15:13;;;;;;;;;;;;;;;;;;7735;1198;71355;-75
2021/08/26 13:15:24;;;;;;;;;;;;;;;;;;7731;1204;90877;-76
2021/08/26 13:15:34;;;;;;;;;;;;;;;;;;7709;1203;115406;-74
2021/08/26 13:15:45;;;;;;;;;;;;;;;;;;7753;1204;70081;-74
2021/08/26 13:15:55;;;;;;;;;;;;;;;;;;7751;1202;63625;-79
2021/08/26 13:16:05;;;;;;;;;;;;;;;;;;7700;1204;93984;-73
2021/08/26 13:16:16;;;;;;;;;;;;;;;;;;7745;1197;117375;-73
2021/08/26 13:16:26;;;;;;;;;;;;;;;;;;7759;1198;70071;-75
2021/08/26 13:16:36;;;;;;;;;;;;;;;;;;7736;1204;90923;-73
2021/08/26 13:16:47;;;;;;;;;;;;;;;;;;7705;1203;94174;-78
2021/08/26 13:16:57;;;;;;;;;;;;;;;;;;7783;1203;70083;-77
2021/08/26 13:17:11;;;;;;;;;;;;;;;;;;7761;1206;64061;-77
2021/08/26 13:17:22;;;;;;;;;;;;;;;;;;7706;1204;115424;-74
2021/08/26 13:17:32;;;;;;;;;;;;;;;;;;7744;1203;93541;-74
2021/08/26 13:17:42;;;;;;;;;;;;;;;;;;7751;1202;93020;-72
2021/08/26 13:17:52;;;;;;;;;;;;;;;;;;7749;1202;91178;-73
2021/08/26 13:18:03;;;;;;;;;;;;;;;;;;7710;1202;95042;-73
2021/08/26 13:18:13;;;;;;;;;;;;;;;;;;7780;1197;70423;-74
2021/08/26 13:18:24;;;;;;;;;;;;;;;;;;7758;1203;85249;-73
2021/08/26 13:18:34;;;;;;;;;;;;;;;;;;7700;1204;116244;-74
2021/08/26 13:18:44;;;;;;;;;;;;;;;;;;7732;1203;93917;-73
2021/08/26 13:18:54;;;;;;;;;;;;;;;;;;7743;1201;70474;-73
2021/08/26 13:19:04;;;;;;;;;;;;;;;;;;7733;1203;90968;-73
2021/08/26 13:19:17;;;;;;;;;;;;;;;;;;7700;1204;93544;-72
2021/08/26 13:19:27;;;;;;;;;;;;;;;;;;7749;1200;70517;-74
2021/08/26 13:19:37;;;;;;;;;;;;;;;;;;7754;1203;62521;-73
2021/08/26 13:19:48;;;;;;;;;;;;;;;;;;7703;1203;93457;-74
2021/08/26 13:19:58;;;;;;;;;;;;;;;;;;7733;1207;116351;-75
2021/08/26 13:20:08;;;;;;;;;;;;;;;;;;7738;1204;92821;-72
2021/08/26 13:20:19;;;;;;;;;;;;;;;;;;7720;1204;93865;-72
2021/08/26 13:20:29;;;;;;;;;;;;;;;;;;7702;1204;94447;-73
2021/08/26 13:20:40;;;;;;;;;;;;;;;;;;7773;1198;70445;-74
2021/08/26 13:20:50;;;;;;;;;;;;;;;;;;7755;1204;84615;-76
2021/08/26 13:21:05;;;;;;;;;;;;;;;;;;7704;1203;116384;-74
2021/08/26 13:21:16;;;;;;;;;;;;;;;;;;7741;1207;116414;-69
2021/08/26 13:21:27;;;;;;;;;;;;;;;;;;7742;1201;94003;-70
2021/08/26 13:21:37;;;;;;;;;;;;;;;;;;7713;1204;90907;-74
2021/08/26 13:21:47;;;;;;;;;;;;;;;;;;7679;1204;94425;-73
2021/08/26 13:21:57;;;;;;;;;;;;;;;;;;7741;1201;70039;-74
2021/08/26 13:22:07;;;;;;;;;;;;;;;;;;7755;1204;64094;-74
2021/08/26 13:22:17;;;;;;;;;;;;;;;;;;7706;1204;93978;-73
2021/08/26 13:22:28;;;;;;;;;;;;;;;;;;7728;1204;93780;-72
2021/08/26 13:22:43;;;;;;;;;;;;;;;;;;7737;1207;95253;-72
2021/08/26 13:22:53;;;;;;;;;;;;;;;;;;7726;1204;91962;-74
2021/08/26 13:23:03;;;;;;;;;;;;;;;;;;7697;1207;117372;-73
2021/08/26 13:23:16;;;;;;;;;;;;;;;;;;7759;1203;70069;-74
2021/08/26 13:23:26;;;;;;;;;;;;;;;;;;7748;1204;85228;-76
2021/08/26 13:23:43;;;;;;;;;;;;;;;;;;7694;1207;116747;-77
2021/08/26 13:23:53;;;;;;;;;;;;;;;;;;7737;1204;115759;-77
2021/08/26 13:24:03;;;;;;;;;;;;;;;;;;7745;1198;70884;-84
2021/08/26 13:24:13;;;;;;;;;;;;;;;;;;7725;1202;91062;-74
2021/08/26 13:24:24;;;;;;;;;;;;;;;;;;7704;1203;93624;-76
2021/08/26 13:24:34;;;;;;;;;;;;;;;;;;7769;1198;70491;-74
2021/08/26 13:24:44;;;;;;;;;;;;;;;;;;7764;1202;63181;-74
2021/08/26 13:24:54;;;;;;;;;;;;;;;;;;7714;1202;112285;-78
2021/08/26 13:25:05;;;;;;;;;;;;;;;;;;7760;1202;95329;-73
2021/08/26 13:25:16;;;;;;;;;;;;;;;;;;7772;1201;71137;-76
2021/08/26 13:25:26;;;;;;;;;;;;;;;;;;7730;1202;92189;-78
2021/08/26 13:25:37;;;;;;;;;;;;;;;;;;7704;1202;116589;-77
2021/08/26 13:25:47;;;;;;;;;;;;;;;;;;7759;1204;70527;-77
2021/08/26 13:25:58;;;;;;;;;;;;;;;;;;7753;1203;63217;-77
2021/08/26 13:26:08;;;;;;;;;;;;;;;;;;7716;1202;113690;-77
2021/08/26 13:26:19;;;;;;;;;;;;;;;;;;7742;1197;95372;-77
2021/08/26 13:26:30;;;;;;;;;;;;;;;;;;7755;1201;93938;-75
2021/08/26 13:26:42;;;;;;;;;;;;;;;;;;7703;1204;91039;-75
2021/08/26 13:26:54;;;;;;;;;;;;;;;;;;7699;1204;117195;-79
2021/08/26 13:27:05;;;;;;;;;;;;;;;;;;7739;1205;70019;-77
2021/08/26 13:27:16;;;;;;;;;;;;;;;;;;7739;1204;63034;-78
2021/08/26 13:27:26;;;;;;;;;;;;;;;;;;7708;1203;115531;-75
2021/08/26 13:27:36;;;;;;;;;;;;;;;;;;7742;1199;93538;-77
2021/08/26 13:27:48;;;;;;;;;;;;;;;;;;7750;1198;92755;-74
2021/08/26 13:27:59;;;;;;;;;;;;;;;;;;7741;1202;91495;-81
2021/08/26 13:28:09;;;;;;;;;;;;;;;;;;7714;1203;94467;-80
2021/08/26 13:28:19;;;;;;;;;;;;;;;;;;7770;1203;69963;-81
2021/08/26 13:28:29;;;;;;;;;;;;;;;;;;7759;1203;63410;-74
2021/08/26 13:28:39;;;;;;;;;;;;;;;;;;7714;1202;93929;-74
2021/08/26 13:28:50;;;;;;;;;;;;;;;;;;7747;1202;116407;-74
2021/08/26 13:29:01;;;;;;;;;;;;;;;;;;7757;1202;92897;-74
2021/08/26 13:29:11;;;;;;;;;;;;;;;;;;7728;1203;90970;-76
2021/08/26 13:29:21;;;;;;;;;;;;;;;;;;7710;1206;94950;-73
2021/08/26 13:29:31;;;;;;;;;;;;;;;;;;7782;1197;70429;-75
2021/08/26 13:29:41;;;;;;;;;;;;;;;;;;7762;1198;62875;-71
2021/08/26 13:29:52;;;;;;;;;;;;;;;;;;7704;1204;93932;-70
2021/08/26 13:30:02;;;;;;;;;;;;;;;;;;7744;1204;93493;-71
2021/08/26 13:30:13;;;;;;;;;;;;;;;;;;7762;1198;70316;-71
2021/08/26 13:30:23;;;;;;;;;;;;;;;;;;7721;1206;92392;-70
2021/08/26 13:30:34;;;;;;;;;;;;;;;;;;7711;1204;94592;-70
2021/08/26 13:30:44;;;;;;;;;;;;;;;;;;7777;1203;70154;-73
2021/08/26 13:30:56;;;;;;;;;;;;;;;;;;7752;1204;85219;-71
2021/08/26 13:31:06;;;;;;;;;;;;;;;;;;7708;1204;94008;-72
2021/08/26 13:31:24;;;;;;;;;;;;;;;;;;7746;1202;94017;-72
2021/08/26 13:31:34;;;;;;;;;;;;;;;;;;7733;1198;94637;-71
2021/08/26 13:31:44;;;;;;;;;;;;;;;;;;7745;1202;90793;-72
2021/08/26 13:31:57;;;;;;;;;;;;;;;;;;7705;1202;115914;-72
2021/08/26 13:32:11;;;;;;;;;;;;;;;;;;7750;1204;73184;-72
2021/08/26 13:32:21;;;;;;;;;;;;;;;;;;7756;1205;85252;-72
2021/08/26 13:32:31;;;;;;;;;;;;;;;;;;7709;1201;93877;-72
2021/08/26 13:32:42;;;;;;;;;;;;;;;;;;7754;1201;95653;-77
2021/08/26 13:32:52;;;;;;;;;;;;;;;;;;7761;1201;71243;-74
2021/08/26 13:33:03;;;;;;;;;;;;;;;;;;7737;1206;90557;-73
2021/08/26 13:33:13;;;;;;;;;;;;;;;;;;7700;1207;117936;-73
2021/08/26 13:33:24;;;;;;;;;;;;;;;;;;7738;1203;70145;-74
2021/08/26 13:33:35;;;;;;;;;;;;;;;;;;7749;1204;84936;-74
2021/08/26 13:33:45;;;;;;;;;;;;;;;;;;7714;1204;113827;-73
2021/08/26 13:33:55;;;;;;;;;;;;;;;;;;7733;1204;94942;-71
2021/08/26 13:34:06;;;;;;;;;;;;;;;;;;7751;1204;71423;-74
2021/08/26 13:34:16;;;;;;;;;;;;;;;;;;7723;1203;90929;-71
2021/08/26 13:34:27;;;;;;;;;;;;;;;;;;7695;1204;116304;-75
2021/08/26 13:34:37;;;;;;;;;;;;;;;;;;7759;1203;69952;-71
2021/08/26 13:34:47;;;;;;;;;;;;;;;;;;7753;1204;63830;-70
2021/08/26 13:34:58;;;;;;;;;;;;;;;;;;7702;1204;93918;-69
2021/08/26 13:35:09;;;;;;;;;;;;;;;;;;7753;1203;115650;-74
2021/08/26 13:35:19;;;;;;;;;;;;;;;;;;7756;1197;92983;-72
